sensor_id;sensor_type;location;lat;lon;timestamp;pressure;altitude;pressure_sealevel;temperature;humidity
75551;BME280;65071;53.082;18.218;2022-11-15T00:02:07;101486.68;;;6.52;82.54
75551;BME280;65071;53.082;18.218;2022-11-15T00:04:52;101481.88;;;6.54;82.69
75551;BME280;65071;53.082;18.218;2022-11-15T00:07:38;101480.94;;;6.55;82.70
75551;BME280;65071;53.082;18.218;2022-11-15T00:10:24;101478.48;;;6.54;82.86
75551;BME280;65071;53.082;18.218;2022-11-15T00:13:12;101483.21;;;6.48;82.72
75551;BME280;65071;53.082;18.218;2022-11-15T00:15:59;101477.08;;;6.44;82.78
75551;BME280;65071;53.082;18.218;2022-11-15T00:18:45;101481.70;;;6.44;82.87
75551;BME280;65071;53.082;18.218;2022-11-15T00:21:30;101482.88;;;6.43;82.90
75551;BME280;65071;53.082;18.218;2022-11-15T00:24:16;101481.04;;;6.39;83.01
75551;BME280;65071;53.082;18.218;2022-11-15T00:27:02;101486.07;;;6.36;83.05
75551;BME280;65071;53.082;18.218;2022-11-15T00:29:47;101477.16;;;6.38;83.02
75551;BME280;65071;53.082;18.218;2022-11-15T00:32:33;101478.83;;;6.37;83.08
75551;BME280;65071;53.082;18.218;2022-11-15T00:35:18;101469.41;;;6.32;83.08
75551;BME280;65071;53.082;18.218;2022-11-15T00:38:04;101469.19;;;6.30;83.17
75551;BME280;65071;53.082;18.218;2022-11-15T00:40:50;101467.84;;;6.29;83.15
75551;BME280;65071;53.082;18.218;2022-11-15T00:43:35;101465.96;;;6.35;83.03
75551;BME280;65071;53.082;18.218;2022-11-15T00:46:21;101461.23;;;6.33;83.18
75551;BME280;65071;53.082;18.218;2022-11-15T00:49:06;101459.50;;;6.28;83.12
75551;BME280;65071;53.082;18.218;2022-11-15T00:51:52;101454.88;;;6.23;83.27
75551;BME280;65071;53.082;18.218;2022-11-15T00:54:38;101458.61;;;6.23;83.22
75551;BME280;65071;53.082;18.218;2022-11-15T00:57:23;101454.05;;;6.22;83.25
75551;BME280;65071;53.082;18.218;2022-11-15T01:00:10;101449.70;;;6.20;83.29
75551;BME280;65071;53.082;18.218;2022-11-15T01:02:55;101444.98;;;6.16;83.47
75551;BME280;65071;53.082;18.218;2022-11-15T01:05:41;101439.41;;;6.14;83.35
75551;BME280;65071;53.082;18.218;2022-11-15T01:08:26;101434.98;;;6.16;83.54
75551;BME280;65071;53.082;18.218;2022-11-15T01:11:12;101430.57;;;6.13;83.47
75551;BME280;65071;53.082;18.218;2022-11-15T01:13:57;101423.84;;;6.09;83.58
75551;BME280;65071;53.082;18.218;2022-11-15T01:16:43;101421.26;;;6.03;83.70
75551;BME280;65071;53.082;18.218;2022-11-15T01:19:28;101422.11;;;6.04;83.70
75551;BME280;65071;53.082;18.218;2022-11-15T01:22:14;101417.20;;;6.03;83.81
75551;BME280;65071;53.082;18.218;2022-11-15T01:25:00;101421.13;;;5.98;83.89
75551;BME280;65071;53.082;18.218;2022-11-15T01:27:45;101417.77;;;5.95;83.82
75551;BME280;65071;53.082;18.218;2022-11-15T01:30:30;101415.02;;;6.01;83.92
75551;BME280;65071;53.082;18.218;2022-11-15T01:33:16;101411.64;;;6.01;83.94
75551;BME280;65071;53.082;18.218;2022-11-15T01:36:07;101409.02;;;6.02;83.87
75551;BME280;65071;53.082;18.218;2022-11-15T01:38:57;101407.71;;;6.01;84.01
75551;BME280;65071;53.082;18.218;2022-11-15T01:41:42;101403.51;;;5.97;83.97
75551;BME280;65071;53.082;18.218;2022-11-15T01:50:12;101387.88;;;6.03;83.99
75551;BME280;65071;53.082;18.218;2022-11-15T01:52:59;101390.25;;;6.02;83.93
75551;BME280;65071;53.082;18.218;2022-11-15T01:55:44;101385.01;;;5.98;83.90
75551;BME280;65071;53.082;18.218;2022-11-15T01:58:30;101383.72;;;6.01;83.96
75551;BME280;65071;53.082;18.218;2022-11-15T02:01:16;101378.87;;;6.02;83.89
75551;BME280;65071;53.082;18.218;2022-11-15T02:04:07;101377.74;;;6.03;83.88
75551;BME280;65071;53.082;18.218;2022-11-15T02:06:55;101378.27;;;6.00;84.03
75551;BME280;65071;53.082;18.218;2022-11-15T02:09:41;101372.70;;;5.93;84.03
75551;BME280;65071;53.082;18.218;2022-11-15T02:12:27;101372.73;;;5.93;84.14
75551;BME280;65071;53.082;18.218;2022-11-15T02:15:13;101373.81;;;5.90;84.24
75551;BME280;65071;53.082;18.218;2022-11-15T02:20:56;101358.90;;;5.81;84.32
75551;BME280;65071;53.082;18.218;2022-11-15T02:24:06;101354.45;;;5.75;84.36
75551;BME280;65071;53.082;18.218;2022-11-15T02:34:05;101367.44;;;5.79;84.58
75551;BME280;65071;53.082;18.218;2022-11-15T02:37:07;101360.55;;;5.75;84.67
75551;BME280;65071;53.082;18.218;2022-11-15T02:42:57;101355.04;;;5.72;84.58
75551;BME280;65071;53.082;18.218;2022-11-15T02:49:45;101350.75;;;5.80;84.64
75551;BME280;65071;53.082;18.218;2022-11-15T02:52:31;101348.30;;;5.76;84.68
75551;BME280;65071;53.082;18.218;2022-11-15T02:55:37;101341.71;;;5.79;84.67
75551;BME280;65071;53.082;18.218;2022-11-15T03:01:38;101334.17;;;5.69;84.81
75551;BME280;65071;53.082;18.218;2022-11-15T03:04:31;101333.61;;;5.67;84.81
75551;BME280;65071;53.082;18.218;2022-11-15T03:08:22;101335.67;;;5.71;84.90
75551;BME280;65071;53.082;18.218;2022-11-15T03:10:59;101334.23;;;5.73;84.93
75551;BME280;65071;53.082;18.218;2022-11-15T03:13:57;101328.30;;;5.76;85.06
75551;BME280;65071;53.082;18.218;2022-11-15T03:19:44;101326.63;;;5.68;85.12
75551;BME280;65071;53.082;18.218;2022-11-15T03:22:41;101320.26;;;5.67;85.08
75551;BME280;65071;53.082;18.218;2022-11-15T03:25:29;101322.46;;;5.71;85.05
75551;BME280;65071;53.082;18.218;2022-11-15T03:28:22;101325.43;;;5.72;85.02
75551;BME280;65071;53.082;18.218;2022-11-15T03:31:11;101325.30;;;5.74;85.22
75551;BME280;65071;53.082;18.218;2022-11-15T03:34:50;101316.14;;;5.67;85.37
75551;BME280;65071;53.082;18.218;2022-11-15T03:37:42;101312.04;;;5.70;85.29
75551;BME280;65071;53.082;18.218;2022-11-15T03:43:33;101301.43;;;5.78;85.10
75551;BME280;65071;53.082;18.218;2022-11-15T03:46:32;101301.14;;;5.82;85.21
75551;BME280;65071;53.082;18.218;2022-11-15T03:49:32;101301.43;;;5.83;85.17
75551;BME280;65071;53.082;18.218;2022-11-15T03:52:20;101300.34;;;5.81;85.26
75551;BME280;65071;53.082;18.218;2022-11-15T03:55:10;101302.30;;;5.81;85.18
75551;BME280;65071;53.082;18.218;2022-11-15T03:57:58;101298.13;;;5.82;85.14
75551;BME280;65071;53.082;18.218;2022-11-15T04:00:44;101288.84;;;5.93;85.05
75551;BME280;65071;53.082;18.218;2022-11-15T04:03:30;101288.69;;;5.95;85.10
75551;BME280;65071;53.082;18.218;2022-11-15T04:06:15;101282.21;;;5.93;85.17
75551;BME280;65071;53.082;18.218;2022-11-15T04:09:01;101279.36;;;5.88;85.21
75551;BME280;65071;53.082;18.218;2022-11-15T04:11:47;101280.88;;;5.87;85.21
75551;BME280;65071;53.082;18.218;2022-11-15T04:14:32;101277.96;;;5.90;85.41
75551;BME280;65071;53.082;18.218;2022-11-15T04:17:18;101280.91;;;5.89;85.59
75551;BME280;65071;53.082;18.218;2022-11-15T04:20:28;101276.84;;;5.91;85.55
75551;BME280;65071;53.082;18.218;2022-11-15T04:23:33;101273.27;;;5.89;85.56
75551;BME280;65071;53.082;18.218;2022-11-15T04:26:37;101279.52;;;5.86;85.52
75551;BME280;65071;53.082;18.218;2022-11-15T04:29:22;101269.77;;;5.79;85.34
75551;BME280;65071;53.082;18.218;2022-11-15T04:32:20;101270.38;;;5.86;85.23
75551;BME280;65071;53.082;18.218;2022-11-15T04:35:06;101268.15;;;5.92;85.14
75551;BME280;65071;53.082;18.218;2022-11-15T04:37:52;101266.70;;;5.95;85.65
75551;BME280;65071;53.082;18.218;2022-11-15T04:40:38;101259.40;;;5.90;85.65
75551;BME280;65071;53.082;18.218;2022-11-15T04:43:23;101261.43;;;5.84;85.63
75551;BME280;65071;53.082;18.218;2022-11-15T04:46:09;101258.15;;;5.82;85.49
75551;BME280;65071;53.082;18.218;2022-11-15T04:48:55;101260.91;;;5.81;85.48
75551;BME280;65071;53.082;18.218;2022-11-15T04:51:40;101261.88;;;5.90;85.65
75551;BME280;65071;53.082;18.218;2022-11-15T04:54:26;101265.95;;;5.88;85.75
75551;BME280;65071;53.082;18.218;2022-11-15T04:57:11;101258.27;;;5.83;85.65
75551;BME280;65071;53.082;18.218;2022-11-15T04:59:57;101251.95;;;5.79;85.73
75551;BME280;65071;53.082;18.218;2022-11-15T05:02:43;101242.36;;;5.75;85.84
75551;BME280;65071;53.082;18.218;2022-11-15T05:05:47;101239.77;;;5.82;85.67
75551;BME280;65071;53.082;18.218;2022-11-15T05:08:33;101239.56;;;5.86;85.64
75551;BME280;65071;53.082;18.218;2022-11-15T05:11:18;101241.39;;;5.87;85.72
75551;BME280;65071;53.082;18.218;2022-11-15T05:14:04;101237.83;;;5.90;85.80
75551;BME280;65071;53.082;18.218;2022-11-15T05:16:49;101232.91;;;5.86;85.86
75551;BME280;65071;53.082;18.218;2022-11-15T05:19:35;101229.92;;;5.82;85.88
75551;BME280;65071;53.082;18.218;2022-11-15T05:22:21;101226.73;;;5.82;85.69
75551;BME280;65071;53.082;18.218;2022-11-15T05:25:06;101230.61;;;5.86;85.70
75551;BME280;65071;53.082;18.218;2022-11-15T05:27:52;101225.09;;;5.90;85.58
75551;BME280;65071;53.082;18.218;2022-11-15T05:30:37;101227.50;;;5.94;85.82
75551;BME280;65071;53.082;18.218;2022-11-15T05:33:23;101228.23;;;5.91;85.91
75551;BME280;65071;53.082;18.218;2022-11-15T05:36:16;101220.48;;;5.90;85.95
75551;BME280;65071;53.082;18.218;2022-11-15T05:39:05;101220.54;;;5.87;85.93
75551;BME280;65071;53.082;18.218;2022-11-15T05:41:53;101214.61;;;5.84;86.05
75551;BME280;65071;53.082;18.218;2022-11-15T05:44:43;101212.23;;;5.91;86.22
75551;BME280;65071;53.082;18.218;2022-11-15T05:47:30;101221.64;;;5.91;86.14
75551;BME280;65071;53.082;18.218;2022-11-15T05:50:17;101223.60;;;5.91;86.39
75551;BME280;65071;53.082;18.218;2022-11-15T05:53:04;101227.67;;;5.87;86.40
75551;BME280;65071;53.082;18.218;2022-11-15T05:55:50;101225.61;;;5.86;86.25
75551;BME280;65071;53.082;18.218;2022-11-15T05:58:37;101232.53;;;5.89;86.05
75551;BME280;65071;53.082;18.218;2022-11-15T06:01:24;101237.42;;;5.97;86.01
75551;BME280;65071;53.082;18.218;2022-11-15T06:04:10;101235.71;;;6.01;86.05
75551;BME280;65071;53.082;18.218;2022-11-15T06:06:58;101230.95;;;6.03;86.17
75551;BME280;65071;53.082;18.218;2022-11-15T06:09:43;101228.59;;;6.06;86.22
75551;BME280;65071;53.082;18.218;2022-11-15T06:12:29;101226.79;;;6.04;86.28
75551;BME280;65071;53.082;18.218;2022-11-15T06:15:14;101227.27;;;6.02;86.14
75551;BME280;65071;53.082;18.218;2022-11-15T06:18:00;101228.71;;;5.99;85.99
75551;BME280;65071;53.082;18.218;2022-11-15T06:20:45;101231.34;;;5.98;86.05
75551;BME280;65071;53.082;18.218;2022-11-15T06:23:32;101234.73;;;6.00;85.92
75551;BME280;65071;53.082;18.218;2022-11-15T06:26:17;101232.46;;;6.02;86.05
75551;BME280;65071;53.082;18.218;2022-11-15T06:29:04;101237.17;;;6.03;86.15
75551;BME280;65071;53.082;18.218;2022-11-15T06:31:49;101235.92;;;6.03;86.12
75551;BME280;65071;53.082;18.218;2022-11-15T06:34:35;101233.91;;;6.06;86.16
75551;BME280;65071;53.082;18.218;2022-11-15T06:37:21;101239.43;;;6.06;86.26
75551;BME280;65071;53.082;18.218;2022-11-15T06:40:08;101235.22;;;6.05;86.04
75551;BME280;65071;53.082;18.218;2022-11-15T06:42:58;101234.36;;;6.05;85.93
75551;BME280;65071;53.082;18.218;2022-11-15T06:45:44;101238.92;;;6.11;85.81
75551;BME280;65071;53.082;18.218;2022-11-15T06:48:31;101237.48;;;6.13;85.91
75551;BME280;65071;53.082;18.218;2022-11-15T06:51:17;101240.08;;;6.14;85.88
75551;BME280;65071;53.082;18.218;2022-11-15T06:54:02;101241.43;;;6.20;85.99
75551;BME280;65071;53.082;18.218;2022-11-15T06:56:48;101236.74;;;6.21;86.18
75551;BME280;65071;53.082;18.218;2022-11-15T06:59:33;101237.02;;;6.15;86.15
75551;BME280;65071;53.082;18.218;2022-11-15T07:02:19;101241.88;;;6.12;86.10
75551;BME280;65071;53.082;18.218;2022-11-15T07:05:05;101246.71;;;6.12;86.12
75551;BME280;65071;53.082;18.218;2022-11-15T07:07:52;101248.59;;;6.17;86.14
75551;BME280;65071;53.082;18.218;2022-11-15T07:10:38;101248.86;;;6.23;86.01
75551;BME280;65071;53.082;18.218;2022-11-15T07:13:25;101253.23;;;6.25;86.10
75551;BME280;65071;53.082;18.218;2022-11-15T07:16:11;101250.34;;;6.25;86.05
75551;BME280;65071;53.082;18.218;2022-11-15T07:18:56;101253.92;;;6.23;86.09
75551;BME280;65071;53.082;18.218;2022-11-15T07:21:42;101258.77;;;6.22;85.83
75551;BME280;65071;53.082;18.218;2022-11-15T07:24:28;101255.34;;;6.25;85.91
75551;BME280;65071;53.082;18.218;2022-11-15T07:27:13;101256.39;;;6.30;85.87
75551;BME280;65071;53.082;18.218;2022-11-15T07:29:59;101255.38;;;6.34;85.99
75551;BME280;65071;53.082;18.218;2022-11-15T07:32:45;101255.80;;;6.36;86.19
75551;BME280;65071;53.082;18.218;2022-11-15T07:35:31;101253.89;;;6.33;86.08
75551;BME280;65071;53.082;18.218;2022-11-15T07:38:17;101254.05;;;6.31;86.07
75551;BME280;65071;53.082;18.218;2022-11-15T07:41:06;101244.17;;;6.33;85.86
75551;BME280;65071;53.082;18.218;2022-11-15T07:43:52;101245.15;;;6.40;85.73
75551;BME280;65071;53.082;18.218;2022-11-15T07:46:37;101245.45;;;6.43;85.75
75551;BME280;65071;53.082;18.218;2022-11-15T07:49:23;101241.18;;;6.47;85.75
75551;BME280;65071;53.082;18.218;2022-11-15T07:52:08;101236.98;;;6.48;85.69
75551;BME280;65071;53.082;18.218;2022-11-15T07:54:54;101232.67;;;6.48;85.83
75551;BME280;65071;53.082;18.218;2022-11-15T07:57:39;101231.27;;;6.46;85.75
75551;BME280;65071;53.082;18.218;2022-11-15T08:00:25;101230.94;;;6.46;85.55
75551;BME280;65071;53.082;18.218;2022-11-15T08:03:12;101224.39;;;6.45;85.51
75551;BME280;65071;53.082;18.218;2022-11-15T08:05:58;101227.35;;;6.46;85.42
75551;BME280;65071;53.082;18.218;2022-11-15T08:08:46;101231.27;;;6.48;85.31
75551;BME280;65071;53.082;18.218;2022-11-15T08:11:32;101228.62;;;6.45;85.47
75551;BME280;65071;53.082;18.218;2022-11-15T08:14:17;101230.71;;;6.49;85.44
75551;BME280;65071;53.082;18.218;2022-11-15T08:17:03;101227.55;;;6.48;85.54
75551;BME280;65071;53.082;18.218;2022-11-15T08:19:48;101228.80;;;6.48;85.57
75551;BME280;65071;53.082;18.218;2022-11-15T08:22:34;101223.28;;;6.50;85.41
75551;BME280;65071;53.082;18.218;2022-11-15T08:25:19;101225.83;;;6.54;85.40
75551;BME280;65071;53.082;18.218;2022-11-15T08:28:07;101218.46;;;6.59;85.17
75551;BME280;65071;53.082;18.218;2022-11-15T08:30:53;101222.45;;;6.68;85.15
75551;BME280;65071;53.082;18.218;2022-11-15T08:33:38;101221.75;;;6.70;84.93
75551;BME280;65071;53.082;18.218;2022-11-15T08:36:24;101222.15;;;6.76;85.22
75551;BME280;65071;53.082;18.218;2022-11-15T08:39:11;101223.05;;;6.83;85.20
75551;BME280;65071;53.082;18.218;2022-11-15T08:41:58;101224.48;;;6.85;85.06
75551;BME280;65071;53.082;18.218;2022-11-15T08:44:43;101218.32;;;6.84;85.00
75551;BME280;65071;53.082;18.218;2022-11-15T08:47:28;101212.33;;;6.85;84.87
75551;BME280;65071;53.082;18.218;2022-11-15T08:50:15;101214.81;;;6.92;84.96
75551;BME280;65071;53.082;18.218;2022-11-15T08:53:05;101210.54;;;7.01;84.89
75551;BME280;65071;53.082;18.218;2022-11-15T08:55:51;101204.94;;;7.04;84.86
75551;BME280;65071;53.082;18.218;2022-11-15T08:58:36;101202.81;;;7.02;84.88
75551;BME280;65071;53.082;18.218;2022-11-15T09:01:22;101205.16;;;6.99;84.84
75551;BME280;65071;53.082;18.218;2022-11-15T09:04:08;101210.73;;;7.03;84.79
75551;BME280;65071;53.082;18.218;2022-11-15T09:06:53;101207.96;;;7.04;84.62
75551;BME280;65071;53.082;18.218;2022-11-15T09:09:39;101208.63;;;7.16;84.40
75551;BME280;65071;53.082;18.218;2022-11-15T09:12:25;101203.36;;;7.15;84.28
75551;BME280;65071;53.082;18.218;2022-11-15T09:15:11;101203.48;;;7.13;84.20
75551;BME280;65071;53.082;18.218;2022-11-15T09:17:59;101196.83;;;7.07;84.30
75551;BME280;65071;53.082;18.218;2022-11-15T09:20:44;101195.23;;;7.02;84.08
75551;BME280;65071;53.082;18.218;2022-11-15T09:23:30;101187.83;;;6.99;84.12
75551;BME280;65071;53.082;18.218;2022-11-15T09:26:15;101188.36;;;7.08;84.06
75551;BME280;65071;53.082;18.218;2022-11-15T09:29:01;101188.45;;;7.11;84.17
75551;BME280;65071;53.082;18.218;2022-11-15T09:31:47;101186.52;;;7.18;84.22
75551;BME280;65071;53.082;18.218;2022-11-15T09:34:32;101183.70;;;7.17;84.08
75551;BME280;65071;53.082;18.218;2022-11-15T09:37:18;101183.48;;;7.13;84.33
75551;BME280;65071;53.082;18.218;2022-11-15T09:40:04;101189.46;;;7.14;84.09
75551;BME280;65071;53.082;18.218;2022-11-15T09:49:04;101179.83;;;7.10;83.87
75551;BME280;65071;53.082;18.218;2022-11-15T09:51:54;101179.04;;;7.06;83.99
75551;BME280;65071;53.082;18.218;2022-11-15T09:54:35;101173.38;;;7.05;83.80
75551;BME280;65071;53.082;18.218;2022-11-15T09:57:30;101171.59;;;7.14;83.81
75551;BME280;65071;53.082;18.218;2022-11-15T10:00:51;101173.19;;;7.21;83.85
75551;BME280;65071;53.082;18.218;2022-11-15T10:03:30;101165.05;;;7.24;83.99
75551;BME280;65071;53.082;18.218;2022-11-15T10:06:04;101160.05;;;7.28;83.80
75551;BME280;65071;53.082;18.218;2022-11-15T10:11:26;101151.68;;;7.24;83.57
75551;BME280;65071;53.082;18.218;2022-11-15T10:14:08;101147.70;;;7.31;83.61
75551;BME280;65071;53.082;18.218;2022-11-15T10:16:45;101151.14;;;7.35;83.74
75551;BME280;65071;53.082;18.218;2022-11-15T10:24:18;101146.46;;;7.28;83.53
75551;BME280;65071;53.082;18.218;2022-11-15T10:26:47;101144.96;;;7.27;83.79
75551;BME280;65071;53.082;18.218;2022-11-15T10:29:21;101143.77;;;7.28;83.48
75551;BME280;65071;53.082;18.218;2022-11-15T10:31:48;101133.02;;;7.36;83.41
75551;BME280;65071;53.082;18.218;2022-11-15T10:34:18;101135.50;;;7.36;83.58
75551;BME280;65071;53.082;18.218;2022-11-15T10:36:47;101135.20;;;7.40;83.35
75551;BME280;65071;53.082;18.218;2022-11-15T10:39:20;101132.77;;;7.48;83.61
75551;BME280;65071;53.082;18.218;2022-11-15T10:41:46;101131.60;;;7.51;83.73
75551;BME280;65071;53.082;18.218;2022-11-15T10:46:44;101128.17;;;7.55;83.48
75551;BME280;65071;53.082;18.218;2022-11-15T10:49:21;101133.52;;;7.52;83.19
75551;BME280;65071;53.082;18.218;2022-11-15T10:51:51;101127.44;;;7.47;83.27
75551;BME280;65071;53.082;18.218;2022-11-15T10:54:53;101126.21;;;7.47;83.21
75551;BME280;65071;53.082;18.218;2022-11-15T10:57:25;101122.77;;;7.45;82.93
75551;BME280;65071;53.082;18.218;2022-11-15T10:59:59;101126.46;;;7.39;83.02
75551;BME280;65071;53.082;18.218;2022-11-15T11:02:38;101128.25;;;7.35;83.27
75551;BME280;65071;53.082;18.218;2022-11-15T11:07:57;101133.54;;;7.38;83.16
75551;BME280;65071;53.082;18.218;2022-11-15T11:10:25;101123.02;;;7.42;83.07
75551;BME280;65071;53.082;18.218;2022-11-15T11:12:52;101120.75;;;7.43;83.05
75551;BME280;65071;53.082;18.218;2022-11-15T11:15:19;101121.00;;;7.45;82.90
75551;BME280;65071;53.082;18.218;2022-11-15T11:34:45;101107.70;;;7.52;82.62
75551;BME280;65071;53.082;18.218;2022-11-15T11:50:36;101093.36;;;7.58;82.86
75551;BME280;65071;53.082;18.218;2022-11-15T11:55:53;101091.75;;;7.59;82.51
75551;BME280;65071;53.082;18.218;2022-11-15T11:58:41;101085.63;;;7.59;82.51
75551;BME280;65071;53.082;18.218;2022-11-15T12:01:41;101082.48;;;7.62;82.09
75551;BME280;65071;53.082;18.218;2022-11-15T12:15:15;101080.83;;;7.50;82.27
75551;BME280;65071;53.082;18.218;2022-11-15T12:17:44;101072.73;;;7.46;82.36
75551;BME280;65071;53.082;18.218;2022-11-15T12:20:18;101071.36;;;7.43;82.08
75551;BME280;65071;53.082;18.218;2022-11-15T12:22:59;101067.66;;;7.45;82.00
75551;BME280;65071;53.082;18.218;2022-11-15T12:25:33;101067.06;;;7.45;82.20
75551;BME280;65071;53.082;18.218;2022-11-15T12:30:49;101067.65;;;7.49;82.45
75551;BME280;65071;53.082;18.218;2022-11-15T12:36:00;101064.78;;;7.47;82.30
75551;BME280;65071;53.082;18.218;2022-11-15T12:41:24;101065.50;;;7.45;81.98
75551;BME280;65071;53.082;18.218;2022-11-15T12:43:52;101063.09;;;7.52;82.08
75551;BME280;65071;53.082;18.218;2022-11-15T12:48:58;101057.46;;;7.53;82.21
75551;BME280;65071;53.082;18.218;2022-11-15T13:02:33;101045.54;;;7.44;82.15
75551;BME280;65071;53.082;18.218;2022-11-15T13:17:47;101046.69;;;7.56;82.17
75551;BME280;65071;53.082;18.218;2022-11-15T13:30:53;101039.09;;;7.59;82.24
75551;BME280;65071;53.082;18.218;2022-11-15T13:35:55;101035.30;;;7.57;82.35
75551;BME280;65071;53.082;18.218;2022-11-15T13:38:32;101032.17;;;7.54;82.38
75551;BME280;65071;53.082;18.218;2022-11-15T13:41:13;101029.96;;;7.51;82.35
75551;BME280;65071;53.082;18.218;2022-11-15T13:43:40;101037.38;;;7.45;82.30
75551;BME280;65071;53.082;18.218;2022-11-15T13:48:42;101038.65;;;7.41;82.33
75551;BME280;65071;53.082;18.218;2022-11-15T13:54:02;101034.23;;;7.45;82.32
75551;BME280;65071;53.082;18.218;2022-11-15T13:56:31;101035.20;;;7.44;82.32
75551;BME280;65071;53.082;18.218;2022-11-15T13:59:08;101033.44;;;7.43;82.42
75551;BME280;65071;53.082;18.218;2022-11-15T14:01:36;101035.02;;;7.37;82.46
75551;BME280;65071;53.082;18.218;2022-11-15T14:04:03;101033.48;;;7.32;82.53
75551;BME280;65071;53.082;18.218;2022-11-15T14:06:30;101027.30;;;7.26;82.50
75551;BME280;65071;53.082;18.218;2022-11-15T14:09:01;101024.64;;;7.22;82.56
75551;BME280;65071;53.082;18.218;2022-11-15T14:11:29;101022.62;;;7.24;82.61
75551;BME280;65071;53.082;18.218;2022-11-15T14:16:38;101020.23;;;7.19;82.98
75551;BME280;65071;53.082;18.218;2022-11-15T14:19:06;101016.18;;;7.12;82.79
75551;BME280;65071;53.082;18.218;2022-11-15T14:21:33;101011.41;;;7.09;83.09
75551;BME280;65071;53.082;18.218;2022-11-15T14:26:42;101007.73;;;7.08;82.86
75551;BME280;65071;53.082;18.218;2022-11-15T14:29:41;101006.50;;;7.14;82.85
75551;BME280;65071;53.082;18.218;2022-11-15T14:32:26;101007.02;;;7.14;82.81
75551;BME280;65071;53.082;18.218;2022-11-15T14:34:59;101003.50;;;7.13;82.98
75551;BME280;65071;53.082;18.218;2022-11-15T14:37:27;100993.77;;;7.06;82.99
75551;BME280;65071;53.082;18.218;2022-11-15T14:39:55;100994.52;;;6.99;83.09
75551;BME280;65071;53.082;18.218;2022-11-15T14:42:22;100995.23;;;6.93;83.11
75551;BME280;65071;53.082;18.218;2022-11-15T14:44:50;100996.34;;;6.90;83.00
75551;BME280;65071;53.082;18.218;2022-11-15T14:47:17;100994.08;;;6.87;83.10
75551;BME280;65071;53.082;18.218;2022-11-15T14:49:44;100994.18;;;6.83;83.17
75551;BME280;65071;53.082;18.218;2022-11-15T14:54:49;100994.36;;;6.75;83.37
75551;BME280;65071;53.082;18.218;2022-11-15T14:57:16;100993.21;;;6.69;83.40
75551;BME280;65071;53.082;18.218;2022-11-15T14:59:43;100991.39;;;6.74;83.44
75551;BME280;65071;53.082;18.218;2022-11-15T15:02:16;100990.23;;;6.71;83.60
75551;BME280;65071;53.082;18.218;2022-11-15T15:04:43;100992.63;;;6.65;83.65
75551;BME280;65071;53.082;18.218;2022-11-15T15:07:09;100994.11;;;6.60;83.72
75551;BME280;65071;53.082;18.218;2022-11-15T15:09:36;100993.36;;;6.59;83.69
75551;BME280;65071;53.082;18.218;2022-11-15T15:12:03;100998.41;;;6.58;83.71
75551;BME280;65071;53.082;18.218;2022-11-15T15:14:30;101000.35;;;6.63;83.63
75551;BME280;65071;53.082;18.218;2022-11-15T15:16:56;100999.02;;;6.64;83.82
75551;BME280;65071;53.082;18.218;2022-11-15T15:19:23;100998.14;;;6.61;83.95
75551;BME280;65071;53.082;18.218;2022-11-15T15:21:50;100999.99;;;6.63;84.03
75551;BME280;65071;53.082;18.218;2022-11-15T15:24:17;101000.65;;;6.61;84.04
75551;BME280;65071;53.082;18.218;2022-11-15T15:26:43;100998.45;;;6.57;83.94
75551;BME280;65071;53.082;18.218;2022-11-15T15:29:10;101000.57;;;6.53;84.09
75551;BME280;65071;53.082;18.218;2022-11-15T15:31:37;100998.70;;;6.54;84.14
75551;BME280;65071;53.082;18.218;2022-11-15T15:34:04;100998.80;;;6.57;84.12
75551;BME280;65071;53.082;18.218;2022-11-15T15:36:31;101002.81;;;6.59;84.19
75551;BME280;65071;53.082;18.218;2022-11-15T15:38:57;101003.74;;;6.56;84.35
75551;BME280;65071;53.082;18.218;2022-11-15T15:41:24;101002.58;;;6.50;84.38
75551;BME280;65071;53.082;18.218;2022-11-15T15:43:51;100994.05;;;6.48;84.46
75551;BME280;65071;53.082;18.218;2022-11-15T15:46:18;100987.90;;;6.50;84.55
75551;BME280;65071;53.082;18.218;2022-11-15T15:48:46;100984.13;;;6.49;84.58
75551;BME280;65071;53.082;18.218;2022-11-15T15:51:13;100984.90;;;6.46;84.62
75551;BME280;65071;53.082;18.218;2022-11-15T15:53:39;100988.30;;;6.43;84.69
75551;BME280;65071;53.082;18.218;2022-11-15T15:56:06;100983.28;;;6.41;84.73
75551;BME280;65071;53.082;18.218;2022-11-15T15:58:34;100983.34;;;6.45;84.77
75551;BME280;65071;53.082;18.218;2022-11-15T16:01:01;100986.27;;;6.48;84.86
75551;BME280;65071;53.082;18.218;2022-11-15T16:03:29;100979.69;;;6.50;84.85
75551;BME280;65071;53.082;18.218;2022-11-15T16:05:55;100977.11;;;6.47;84.83
75551;BME280;65071;53.082;18.218;2022-11-15T16:08:23;100975.89;;;6.42;84.83
75551;BME280;65071;53.082;18.218;2022-11-15T16:10:51;100975.41;;;6.41;84.74
75551;BME280;65071;53.082;18.218;2022-11-15T16:13:17;100977.67;;;6.47;84.85
75551;BME280;65071;53.082;18.218;2022-11-15T16:15:47;100976.55;;;6.47;84.94
75551;BME280;65071;53.082;18.218;2022-11-15T16:18:17;100975.58;;;6.46;85.06
75551;BME280;65071;53.082;18.218;2022-11-15T16:20:48;100972.36;;;6.44;84.98
75551;BME280;65071;53.082;18.218;2022-11-15T16:23:22;100971.33;;;6.41;85.00
75551;BME280;65071;53.082;18.218;2022-11-15T16:25:52;100974.92;;;6.45;85.15
75551;BME280;65071;53.082;18.218;2022-11-15T16:28:27;100966.39;;;6.45;85.05
75551;BME280;65071;53.082;18.218;2022-11-15T16:31:11;100962.83;;;6.45;85.17
75551;BME280;65071;53.082;18.218;2022-11-15T16:33:39;100955.80;;;6.41;85.28
75551;BME280;65071;53.082;18.218;2022-11-15T16:36:18;100954.88;;;6.37;85.19
75551;BME280;65071;53.082;18.218;2022-11-15T16:38:46;100964.73;;;6.36;85.26
75551;BME280;65071;53.082;18.218;2022-11-15T16:41:13;100971.04;;;6.42;85.14
75551;BME280;65071;53.082;18.218;2022-11-15T16:43:40;100973.19;;;6.42;85.37